sensor_id;sensor_type;location;lat;lon;timestamp;temperature;humidity
68274;SHT30;55104;47.356;19.448;2023-12-04T00:01:17;-5.65;93.05
68274;SHT30;55104;47.356;19.448;2023-12-04T00:04:19;-5.68;93.40
68274;SHT30;55104;47.356;19.448;2023-12-04T00:07:22;-5.70;94.05
68274;SHT30;55104;47.356;19.448;2023-12-04T00:10:24;-5.69;93.42
68274;SHT30;55104;47.356;19.448;2023-12-04T00:13:26;-5.68;93.36
68274;SHT30;55104;47.356;19.448;2023-12-04T00:16:28;-5.72;93.35
68274;SHT30;55104;47.356;19.448;2023-12-04T00:19:31;-5.75;93.45
68274;SHT30;55104;47.356;19.448;2023-12-04T00:22:33;-5.76;92.82
68274;SHT30;55104;47.356;19.448;2023-12-04T00:25:36;-5.78;93.13
68274;SHT30;55104;47.356;19.448;2023-12-04T00:28:38;-5.83;93.29
68274;SHT30;55104;47.356;19.448;2023-12-04T00:31:41;-5.89;94.18
68274;SHT30;55104;47.356;19.448;2023-12-04T00:34:43;-5.75;93.86
68274;SHT30;55104;47.356;19.448;2023-12-04T00:37:45;-5.76;93.40
68274;SHT30;55104;47.356;19.448;2023-12-04T00:40:48;-5.80;93.37
68274;SHT30;55104;47.356;19.448;2023-12-04T00:43:50;-5.90;93.05
68274;SHT30;55104;47.356;19.448;2023-12-04T00:46:52;-5.90;93.36
68274;SHT30;55104;47.356;19.448;2023-12-04T00:49:54;-5.96;93.01
68274;SHT30;55104;47.356;19.448;2023-12-04T00:52:56;-5.99;93.69
68274;SHT30;55104;47.356;19.448;2023-12-04T00:55:59;-6.03;94.47
68274;SHT30;55104;47.356;19.448;2023-12-04T00:59:01;-6.15;94.08
68274;SHT30;55104;47.356;19.448;2023-12-04T01:02:03;-6.18;94.41
68274;SHT30;55104;47.356;19.448;2023-12-04T01:05:06;-6.25;94.55
68274;SHT30;55104;47.356;19.448;2023-12-04T01:08:08;-6.18;94.40
68274;SHT30;55104;47.356;19.448;2023-12-04T01:11:10;-6.17;94.10
68274;SHT30;55104;47.356;19.448;2023-12-04T01:14:13;-6.20;93.63
68274;SHT30;55104;47.356;19.448;2023-12-04T01:17:15;-6.21;93.29
68274;SHT30;55104;47.356;19.448;2023-12-04T01:20:17;-6.27;93.98
68274;SHT30;55104;47.356;19.448;2023-12-04T01:23:19;-6.28;94.63
68274;SHT30;55104;47.356;19.448;2023-12-04T01:26:21;-6.25;93.96
68274;SHT30;55104;47.356;19.448;2023-12-04T01:29:24;-6.25;94.43
68274;SHT30;55104;47.356;19.448;2023-12-04T01:32:26;-6.27;94.08
68274;SHT30;55104;47.356;19.448;2023-12-04T01:35:28;-6.27;94.72
68274;SHT30;55104;47.356;19.448;2023-12-04T01:38:31;-6.27;94.27
68274;SHT30;55104;47.356;19.448;2023-12-04T01:41:33;-6.22;94.14
68274;SHT30;55104;47.356;19.448;2023-12-04T01:44:36;-6.22;93.85
68274;SHT30;55104;47.356;19.448;2023-12-04T01:47:38;-6.28;93.51
68274;SHT30;55104;47.356;19.448;2023-12-04T01:50:41;-6.29;93.38
68274;SHT30;55104;47.356;19.448;2023-12-04T01:53:43;-6.37;93.47
68274;SHT30;55104;47.356;19.448;2023-12-04T01:56:46;-6.38;93.82
68274;SHT30;55104;47.356;19.448;2023-12-04T01:59:48;-6.39;94.01
68274;SHT30;55104;47.356;19.448;2023-12-04T02:02:51;-6.41;94.11
68274;SHT30;55104;47.356;19.448;2023-12-04T02:05:54;-6.38;94.34
68274;SHT30;55104;47.356;19.448;2023-12-04T02:08:56;-6.38;94.38
68274;SHT30;55104;47.356;19.448;2023-12-04T02:11:59;-6.50;93.62
68274;SHT30;55104;47.356;19.448;2023-12-04T02:15:02;-6.52;93.97
68274;SHT30;55104;47.356;19.448;2023-12-04T02:18:05;-6.56;94.21
68274;SHT30;55104;47.356;19.448;2023-12-04T02:21:08;-6.56;94.60
68274;SHT30;55104;47.356;19.448;2023-12-04T02:24:10;-6.55;94.58
68274;SHT30;55104;47.356;19.448;2023-12-04T02:27:17;-6.53;94.18
68274;SHT30;55104;47.356;19.448;2023-12-04T02:30:22;-6.49;94.41
68274;SHT30;55104;47.356;19.448;2023-12-04T02:33:25;-6.48;95.09
68274;SHT30;55104;47.356;19.448;2023-12-04T02:36:29;-6.55;94.38
68274;SHT30;55104;47.356;19.448;2023-12-04T02:39:33;-6.65;94.34
68274;SHT30;55104;47.356;19.448;2023-12-04T02:42:35;-6.69;94.78
68274;SHT30;55104;47.356;19.448;2023-12-04T02:45:37;-6.69;94.67
68274;SHT30;55104;47.356;19.448;2023-12-04T02:48:39;-6.69;94.26
68274;SHT30;55104;47.356;19.448;2023-12-04T02:51:42;-6.66;94.43
68274;SHT30;55104;47.356;19.448;2023-12-04T02:54:44;-6.68;93.95
68274;SHT30;55104;47.356;19.448;2023-12-04T02:57:46;-6.71;93.37
68274;SHT30;55104;47.356;19.448;2023-12-04T03:00:49;-6.72;93.00
68274;SHT30;55104;47.356;19.448;2023-12-04T03:03:51;-6.76;93.30
68274;SHT30;55104;47.356;19.448;2023-12-04T03:06:54;-6.75;94.34
68274;SHT30;55104;47.356;19.448;2023-12-04T03:09:56;-6.68;94.35
68274;SHT30;55104;47.356;19.448;2023-12-04T03:12:58;-6.65;94.20
68274;SHT30;55104;47.356;19.448;2023-12-04T03:16:00;-6.66;94.01
68274;SHT30;55104;47.356;19.448;2023-12-04T03:19:03;-6.71;93.75
68274;SHT30;55104;47.356;19.448;2023-12-04T03:22:05;-6.71;93.81
68274;SHT30;55104;47.356;19.448;2023-12-04T03:25:07;-6.77;93.37
68274;SHT30;55104;47.356;19.448;2023-12-04T03:28:10;-6.79;94.36
68274;SHT30;55104;47.356;19.448;2023-12-04T03:31:12;-6.76;93.92
68274;SHT30;55104;47.356;19.448;2023-12-04T03:34:15;-6.82;93.59
68274;SHT30;55104;47.356;19.448;2023-12-04T03:37:17;-6.83;93.68
68274;SHT30;55104;47.356;19.448;2023-12-04T03:40:19;-6.86;93.26
68274;SHT30;55104;47.356;19.448;2023-12-04T03:43:22;-6.84;93.10
68274;SHT30;55104;47.356;19.448;2023-12-04T03:46:24;-6.93;93.08
68274;SHT30;55104;47.356;19.448;2023-12-04T03:49:28;-6.97;93.22
68274;SHT30;55104;47.356;19.448;2023-12-04T03:52:30;-6.96;93.15
68274;SHT30;55104;47.356;19.448;2023-12-04T03:55:32;-6.99;93.06
68274;SHT30;55104;47.356;19.448;2023-12-04T03:58:34;-7.01;93.97
68274;SHT30;55104;47.356;19.448;2023-12-04T04:01:36;-7.07;94.09
68274;SHT30;55104;47.356;19.448;2023-12-04T04:04:39;-7.08;93.74
68274;SHT30;55104;47.356;19.448;2023-12-04T04:07:41;-7.10;93.97
68274;SHT30;55104;47.356;19.448;2023-12-04T04:10:44;-7.18;94.27
68274;SHT30;55104;47.356;19.448;2023-12-04T04:13:47;-7.18;94.78
68274;SHT30;55104;47.356;19.448;2023-12-04T04:16:49;-7.18;94.69
68274;SHT30;55104;47.356;19.448;2023-12-04T04:19:52;-7.15;94.47
68274;SHT30;55104;47.356;19.448;2023-12-04T04:22:55;-7.11;94.60
68274;SHT30;55104;47.356;19.448;2023-12-04T04:25:57;-7.17;94.18
68274;SHT30;55104;47.356;19.448;2023-12-04T04:28:59;-7.20;94.54
68274;SHT30;55104;47.356;19.448;2023-12-04T04:32:01;-7.25;93.96
68274;SHT30;55104;47.356;19.448;2023-12-04T04:35:03;-7.28;93.81
68274;SHT30;55104;47.356;19.448;2023-12-04T04:38:06;-7.21;94.08
68274;SHT30;55104;47.356;19.448;2023-12-04T04:41:15;-7.18;93.99
68274;SHT30;55104;47.356;19.448;2023-12-04T04:44:18;-7.15;93.48
68274;SHT30;55104;47.356;19.448;2023-12-04T04:47:20;-7.22;93.03
68274;SHT30;55104;47.356;19.448;2023-12-04T04:50:22;-7.22;93.16
68274;SHT30;55104;47.356;19.448;2023-12-04T04:53:24;-7.25;92.89
68274;SHT30;55104;47.356;19.448;2023-12-04T04:56:26;-7.27;93.91
68274;SHT30;55104;47.356;19.448;2023-12-04T04:59:29;-7.28;94.31
68274;SHT30;55104;47.356;19.448;2023-12-04T05:02:32;-7.27;93.83
68274;SHT30;55104;47.356;19.448;2023-12-04T05:05:34;-7.22;93.86
68274;SHT30;55104;47.356;19.448;2023-12-04T05:08:36;-7.22;93.32
68274;SHT30;55104;47.356;19.448;2023-12-04T05:11:39;-7.24;93.44
68274;SHT30;55104;47.356;19.448;2023-12-04T05:14:41;-7.22;93.66
68274;SHT30;55104;47.356;19.448;2023-12-04T05:17:43;-7.22;93.34
68274;SHT30;55104;47.356;19.448;2023-12-04T05:20:45;-7.21;93.39
68274;SHT30;55104;47.356;19.448;2023-12-04T05:23:48;-7.18;93.61
68274;SHT30;55104;47.356;19.448;2023-12-04T05:26:50;-7.22;92.82
68274;SHT30;55104;47.356;19.448;2023-12-04T05:29:53;-7.27;92.60
68274;SHT30;55104;47.356;19.448;2023-12-04T05:32:55;-7.32;92.71
68274;SHT30;55104;47.356;19.448;2023-12-04T05:36:00;-7.32;92.65
68274;SHT30;55104;47.356;19.448;2023-12-04T05:39:02;-7.29;93.33
68274;SHT30;55104;47.356;19.448;2023-12-04T05:42:06;-7.32;92.79
68274;SHT30;55104;47.356;19.448;2023-12-04T05:45:08;-7.31;92.87
68274;SHT30;55104;47.356;19.448;2023-12-04T05:48:11;-7.29;92.69
68274;SHT30;55104;47.356;19.448;2023-12-04T05:51:13;-7.31;92.72
68274;SHT30;55104;47.356;19.448;2023-12-04T05:54:17;-7.32;93.56
68274;SHT30;55104;47.356;19.448;2023-12-04T05:57:19;-7.29;93.24
68274;SHT30;55104;47.356;19.448;2023-12-04T06:00:21;-7.35;93.67
68274;SHT30;55104;47.356;19.448;2023-12-04T06:03:28;-7.36;93.85
68274;SHT30;55104;47.356;19.448;2023-12-04T06:06:30;-7.45;93.82
68274;SHT30;55104;47.356;19.448;2023-12-04T06:09:33;-7.45;93.35
68274;SHT30;55104;47.356;19.448;2023-12-04T06:12:35;-7.39;93.57
68274;SHT30;55104;47.356;19.448;2023-12-04T06:15:37;-7.32;93.92
68274;SHT30;55104;47.356;19.448;2023-12-04T06:18:40;-7.35;93.50
68274;SHT30;55104;47.356;19.448;2023-12-04T06:21:42;-7.29;93.57
68274;SHT30;55104;47.356;19.448;2023-12-04T06:24:45;-7.28;93.48
68274;SHT30;55104;47.356;19.448;2023-12-04T06:27:47;-7.25;93.53
68274;SHT30;55104;47.356;19.448;2023-12-04T06:30:50;-7.15;94.24
68274;SHT30;55104;47.356;19.448;2023-12-04T06:33:52;-7.00;93.92
68274;SHT30;55104;47.356;19.448;2023-12-04T06:36:55;-6.99;93.24
68274;SHT30;55104;47.356;19.448;2023-12-04T06:39:59;-7.00;92.88
68274;SHT30;55104;47.356;19.448;2023-12-04T06:43:03;-6.96;93.39
68274;SHT30;55104;47.356;19.448;2023-12-04T06:46:06;-6.97;93.30
68274;SHT30;55104;47.356;19.448;2023-12-04T06:49:09;-6.91;93.85
68274;SHT30;55104;47.356;19.448;2023-12-04T06:52:11;-6.87;94.30
68274;SHT30;55104;47.356;19.448;2023-12-04T06:55:13;-6.84;94.43
68274;SHT30;55104;47.356;19.448;2023-12-04T06:58:15;-6.84;94.09
68274;SHT30;55104;47.356;19.448;2023-12-04T07:01:18;-6.72;93.84
68274;SHT30;55104;47.356;19.448;2023-12-04T07:04:20;-6.63;94.13
68274;SHT30;55104;47.356;19.448;2023-12-04T07:07:24;-6.50;93.79
68274;SHT30;55104;47.356;19.448;2023-12-04T07:10:26;-6.34;93.80
68274;SHT30;55104;47.356;19.448;2023-12-04T07:13:29;-6.22;94.02
68274;SHT30;55104;47.356;19.448;2023-12-04T07:16:38;-6.13;94.14
68274;SHT30;55104;47.356;19.448;2023-12-04T07:19:41;-6.08;94.29
68274;SHT30;55104;47.356;19.448;2023-12-04T07:22:44;-5.97;95.22
68274;SHT30;55104;47.356;19.448;2023-12-04T07:25:46;-5.86;94.88
68274;SHT30;55104;47.356;19.448;2023-12-04T07:28:48;-5.79;94.93
68274;SHT30;55104;47.356;19.448;2023-12-04T07:31:52;-5.63;94.82
68274;SHT30;55104;47.356;19.448;2023-12-04T07:34:55;-5.62;94.40
68274;SHT30;55104;47.356;19.448;2023-12-04T07:37:57;-5.56;94.54
68274;SHT30;55104;47.356;19.448;2023-12-04T07:40:59;-5.50;94.69
68274;SHT30;55104;47.356;19.448;2023-12-04T07:44:01;-5.42;94.73
68274;SHT30;55104;47.356;19.448;2023-12-04T07:47:03;-5.32;94.62
68274;SHT30;55104;47.356;19.448;2023-12-04T07:50:06;-5.20;94.70
68274;SHT30;55104;47.356;19.448;2023-12-04T07:53:08;-5.10;94.69
68274;SHT30;55104;47.356;19.448;2023-12-04T07:56:15;-4.97;94.61
68274;SHT30;55104;47.356;19.448;2023-12-04T07:59:17;-4.85;94.54
68274;SHT30;55104;47.356;19.448;2023-12-04T08:02:19;-4.72;94.10
68274;SHT30;55104;47.356;19.448;2023-12-04T08:05:21;-4.65;93.37
68274;SHT30;55104;47.356;19.448;2023-12-04T08:08:24;-4.57;93.36
68274;SHT30;55104;47.356;19.448;2023-12-04T08:11:27;-4.32;93.43
68274;SHT30;55104;47.356;19.448;2023-12-04T08:14:29;-4.27;92.69
68274;SHT30;55104;47.356;19.448;2023-12-04T08:17:31;-4.11;92.04
68274;SHT30;55104;47.356;19.448;2023-12-04T08:20:33;-4.02;92.25
68274;SHT30;55104;47.356;19.448;2023-12-04T08:23:42;-3.92;92.09
68274;SHT30;55104;47.356;19.448;2023-12-04T08:26:46;-3.81;92.15
68274;SHT30;55104;47.356;19.448;2023-12-04T08:29:49;-3.72;92.09
68274;SHT30;55104;47.356;19.448;2023-12-04T08:32:51;-3.62;91.36
68274;SHT30;55104;47.356;19.448;2023-12-04T08:35:53;-3.51;91.61
68274;SHT30;55104;47.356;19.448;2023-12-04T08:38:55;-3.37;91.65
68274;SHT30;55104;47.356;19.448;2023-12-04T08:41:57;-3.26;91.07
68274;SHT30;55104;47.356;19.448;2023-12-04T08:45:06;-3.11;90.41
68274;SHT30;55104;47.356;19.448;2023-12-04T08:48:08;-2.95;89.00
68274;SHT30;55104;47.356;19.448;2023-12-04T08:51:16;-2.89;89.40
68274;SHT30;55104;47.356;19.448;2023-12-04T08:54:19;-2.73;89.49
68274;SHT30;55104;47.356;19.448;2023-12-04T08:57:21;-2.64;89.70
68274;SHT30;55104;47.356;19.448;2023-12-04T09:00:23;-2.55;90.06
68274;SHT30;55104;47.356;19.448;2023-12-04T09:03:25;-2.47;89.23
68274;SHT30;55104;47.356;19.448;2023-12-04T09:06:33;-2.29;89.43
68274;SHT30;55104;47.356;19.448;2023-12-04T09:09:38;-2.19;89.25
68274;SHT30;55104;47.356;19.448;2023-12-04T09:12:41;-2.11;88.15
68274;SHT30;55104;47.356;19.448;2023-12-04T09:15:43;-2.06;87.81
68274;SHT30;55104;47.356;19.448;2023-12-04T09:18:46;-1.96;87.67
68274;SHT30;55104;47.356;19.448;2023-12-04T09:21:49;-1.79;88.10
68274;SHT30;55104;47.356;19.448;2023-12-04T09:25:05;-1.64;86.03
68274;SHT30;55104;47.356;19.448;2023-12-04T09:28:07;-1.52;86.77
68274;SHT30;55104;47.356;19.448;2023-12-04T09:31:10;-1.43;85.31
68274;SHT30;55104;47.356;19.448;2023-12-04T09:34:12;-1.27;86.08
68274;SHT30;55104;47.356;19.448;2023-12-04T09:37:14;-1.10;85.09
68274;SHT30;55104;47.356;19.448;2023-12-04T09:40:17;-1.02;83.78
68274;SHT30;55104;47.356;19.448;2023-12-04T09:43:19;-0.86;84.06
68274;SHT30;55104;47.356;19.448;2023-12-04T09:46:22;-0.79;83.32
68274;SHT30;55104;47.356;19.448;2023-12-04T09:49:26;-0.79;81.07
68274;SHT30;55104;47.356;19.448;2023-12-04T09:52:30;-0.68;81.97
68274;SHT30;55104;47.356;19.448;2023-12-04T09:55:33;-0.57;80.84
68274;SHT30;55104;47.356;19.448;2023-12-04T09:58:39;-0.40;81.42
68274;SHT30;55104;47.356;19.448;2023-12-04T10:01:43;-0.16;81.39
68274;SHT30;55104;47.356;19.448;2023-12-04T10:04:46;-0.13;79.45
68274;SHT30;55104;47.356;19.448;2023-12-04T10:07:48;0.11;78.48
68274;SHT30;55104;47.356;19.448;2023-12-04T10:10:50;0.09;77.78
68274;SHT30;55104;47.356;19.448;2023-12-04T10:13:54;0.19;78.48
68274;SHT30;55104;47.356;19.448;2023-12-04T10:17:14;0.32;76.73
68274;SHT30;55104;47.356;19.448;2023-12-04T10:20:16;0.60;78.25
68274;SHT30;55104;47.356;19.448;2023-12-04T10:23:22;0.85;75.62
68274;SHT30;55104;47.356;19.448;2023-12-04T10:26:25;0.76;74.09
68274;SHT30;55104;47.356;19.448;2023-12-04T10:29:28;0.77;74.52
68274;SHT30;55104;47.356;19.448;2023-12-04T10:32:35;0.79;74.54
68274;SHT30;55104;47.356;19.448;2023-12-04T10:35:38;0.73;75.46
68274;SHT30;55104;47.356;19.448;2023-12-04T10:38:41;0.59;76.29
68274;SHT30;55104;47.356;19.448;2023-12-04T10:41:44;0.59;75.10
68274;SHT30;55104;47.356;19.448;2023-12-04T10:44:46;0.71;76.34
68274;SHT30;55104;47.356;19.448;2023-12-04T10:47:48;0.98;75.90
68274;SHT30;55104;47.356;19.448;2023-12-04T10:50:52;1.04;74.31
68274;SHT30;55104;47.356;19.448;2023-12-04T10:53:55;0.98;73.53
68274;SHT30;55104;47.356;19.448;2023-12-04T10:57:01;1.07;74.56
68274;SHT30;55104;47.356;19.448;2023-12-04T11:00:06;1.09;73.53
68274;SHT30;55104;47.356;19.448;2023-12-04T11:03:18;1.28;75.28
68274;SHT30;55104;47.356;19.448;2023-12-04T11:06:23;1.42;74.88
68274;SHT30;55104;47.356;19.448;2023-12-04T11:09:28;1.56;73.50
68274;SHT30;55104;47.356;19.448;2023-12-04T11:12:31;1.52;71.71
68274;SHT30;55104;47.356;19.448;2023-12-04T11:15:39;1.42;72.09
68274;SHT30;55104;47.356;19.448;2023-12-04T11:18:51;1.57;73.29
68274;SHT30;55104;47.356;19.448;2023-12-04T11:21:57;1.56;72.26
68274;SHT30;55104;47.356;19.448;2023-12-04T11:25:00;1.75;72.67
68274;SHT30;55104;47.356;19.448;2023-12-04T11:28:05;1.82;73.55
68274;SHT30;55104;47.356;19.448;2023-12-04T11:31:08;1.88;72.14
68274;SHT30;55104;47.356;19.448;2023-12-04T11:34:12;1.67;70.33
68274;SHT30;55104;47.356;19.448;2023-12-04T11:37:14;1.90;71.94
68274;SHT30;55104;47.356;19.448;2023-12-04T11:40:16;2.07;71.41
68274;SHT30;55104;47.356;19.448;2023-12-04T11:43:27;2.07;70.39
68274;SHT30;55104;47.356;19.448;2023-12-04T11:46:30;1.97;68.46
68274;SHT30;55104;47.356;19.448;2023-12-04T11:49:35;1.90;70.21
68274;SHT30;55104;47.356;19.448;2023-12-04T11:52:38;1.95;70.41
68274;SHT30;55104;47.356;19.448;2023-12-04T11:55:40;2.04;69.71
68274;SHT30;55104;47.356;19.448;2023-12-04T11:58:47;2.17;69.92
68274;SHT30;55104;47.356;19.448;2023-12-04T12:01:56;2.05;69.92
68274;SHT30;55104;47.356;19.448;2023-12-04T12:05:01;2.02;70.05
68274;SHT30;55104;47.356;19.448;2023-12-04T12:08:05;2.14;71.14
68274;SHT30;55104;47.356;19.448;2023-12-04T12:11:09;2.12;70.42
68274;SHT30;55104;47.356;19.448;2023-12-04T12:14:11;2.11;70.63
68274;SHT30;55104;47.356;19.448;2023-12-04T12:17:13;2.14;71.08
68274;SHT30;55104;47.356;19.448;2023-12-04T12:20:16;2.24;69.81
68274;SHT30;55104;47.356;19.448;2023-12-04T12:23:18;2.22;70.30
68274;SHT30;55104;47.356;19.448;2023-12-04T12:26:21;2.18;69.92
68274;SHT30;55104;47.356;19.448;2023-12-04T12:29:24;2.17;70.33
68274;SHT30;55104;47.356;19.448;2023-12-04T12:32:27;2.22;70.56
68274;SHT30;55104;47.356;19.448;2023-12-04T12:35:33;2.09;69.42
68274;SHT30;55104;47.356;19.448;2023-12-04T12:38:36;2.14;70.10
68274;SHT30;55104;47.356;19.448;2023-12-04T12:41:39;2.22;70.68
68274;SHT30;55104;47.356;19.448;2023-12-04T12:44:42;2.11;70.25
68274;SHT30;55104;47.356;19.448;2023-12-04T12:47:44;2.14;70.25
68274;SHT30;55104;47.356;19.448;2023-12-04T12:50:47;2.11;70.14
68274;SHT30;55104;47.356;19.448;2023-12-04T12:53:49;2.05;69.83
68274;SHT30;55104;47.356;19.448;2023-12-04T12:56:53;2.14;70.90
68274;SHT30;55104;47.356;19.448;2023-12-04T12:59:56;2.11;70.52
68274;SHT30;55104;47.356;19.448;2023-12-04T13:03:01;2.02;70.53
68274;SHT30;55104;47.356;19.448;2023-12-04T13:06:04;1.94;70.52
68274;SHT30;55104;47.356;19.448;2023-12-04T13:09:07;1.78;70.99
68274;SHT30;55104;47.356;19.448;2023-12-04T13:12:09;1.74;71.41
68274;SHT30;55104;47.356;19.448;2023-12-04T13:15:12;1.71;71.29
68274;SHT30;55104;47.356;19.448;2023-12-04T13:18:15;1.63;71.46
68274;SHT30;55104;47.356;19.448;2023-12-04T13:21:17;1.50;71.76
68274;SHT30;55104;47.356;19.448;2023-12-04T13:24:19;1.39;72.59
68274;SHT30;55104;47.356;19.448;2023-12-04T13:27:21;1.32;73.08
68274;SHT30;55104;47.356;19.448;2023-12-04T13:30:24;1.18;73.93
68274;SHT30;55104;47.356;19.448;2023-12-04T13:33:26;0.99;73.59
68274;SHT30;55104;47.356;19.448;2023-12-04T13:36:29;0.92;74.54
68274;SHT30;55104;47.356;19.448;2023-12-04T13:39:32;0.85;75.28
68274;SHT30;55104;47.356;19.448;2023-12-04T13:42:50;0.80;75.57
68274;SHT30;55104;47.356;19.448;2023-12-04T13:46:11;0.79;75.50
68274;SHT30;55104;47.356;19.448;2023-12-04T13:49:15;0.74;75.24
68274;SHT30;55104;47.356;19.448;2023-12-04T13:52:21;0.71;75.85
68274;SHT30;55104;47.356;19.448;2023-12-04T13:55:25;0.63;75.91
68274;SHT30;55104;47.356;19.448;2023-12-04T13:58:48;0.69;75.85
68274;SHT30;55104;47.356;19.448;2023-12-04T14:01:58;0.61;76.32
68274;SHT30;55104;47.356;19.448;2023-12-04T14:05:03;0.52;76.62
68274;SHT30;55104;47.356;19.448;2023-12-04T14:08:06;0.52;76.84
68274;SHT30;55104;47.356;19.448;2023-12-04T14:11:08;0.46;76.90
68274;SHT30;55104;47.356;19.448;2023-12-04T14:14:16;0.45;77.22
68274;SHT30;55104;47.356;19.448;2023-12-04T14:17:18;0.43;77.41
68274;SHT30;55104;47.356;19.448;2023-12-04T14:20:20;0.42;77.71
68274;SHT30;55104;47.356;19.448;2023-12-04T14:23:24;0.28;78.54
68274;SHT30;55104;47.356;19.448;2023-12-04T14:26:26;0.25;78.42
68274;SHT30;55104;47.356;19.448;2023-12-04T14:29:29;0.16;78.92
68274;SHT30;55104;47.356;19.448;2023-12-04T14:32:32;0.06;79.76
68274;SHT30;55104;47.356;19.448;2023-12-04T14:35:45;0.01;80.08
68274;SHT30;55104;47.356;19.448;2023-12-04T14:38:47;-0.10;80.27
68274;SHT30;55104;47.356;19.448;2023-12-04T14:41:51;-0.23;80.85
68274;SHT30;55104;47.356;19.448;2023-12-04T14:44:53;-0.29;80.88
68274;SHT30;55104;47.356;19.448;2023-12-04T14:47:56;-0.34;81.03
68274;SHT30;55104;47.356;19.448;2023-12-04T14:50:59;-0.36;81.44
68274;SHT30;55104;47.356;19.448;2023-12-04T14:54:03;-0.41;81.58
68274;SHT30;55104;47.356;19.448;2023-12-04T14:57:24;-0.47;81.76
68274;SHT30;55104;47.356;19.448;2023-12-04T15:00:41;-0.50;81.89
68274;SHT30;55104;47.356;19.448;2023-12-04T15:03:43;-0.54;82.09
68274;SHT30;55104;47.356;19.448;2023-12-04T15:07:00;-0.51;81.77
68274;SHT30;55104;47.356;19.448;2023-12-04T15:10:23;-0.49;81.48
68274;SHT30;55104;47.356;19.448;2023-12-04T15:13:35;-0.45;81.61
68274;SHT30;55104;47.356;19.448;2023-12-04T15:16:55;-0.50;81.18
68274;SHT30;55104;47.356;19.448;2023-12-04T15:20:08;-0.50;81.48
68274;SHT30;55104;47.356;19.448;2023-12-04T15:23:10;-0.49;81.35
68274;SHT30;55104;47.356;19.448;2023-12-04T15:26:13;-0.56;81.61
68274;SHT30;55104;47.356;19.448;2023-12-04T15:29:15;-0.51;81.42
68274;SHT30;55104;47.356;19.448;2023-12-04T15:32:20;-0.51;81.38
68274;SHT30;55104;47.356;19.448;2023-12-04T15:35:23;-0.45;81.36
68274;SHT30;55104;47.356;19.448;2023-12-04T15:38:25;-0.44;81.17
68274;SHT30;55104;47.356;19.448;2023-12-04T15:41:28;-0.41;81.18
68274;SHT30;55104;47.356;19.448;2023-12-04T15:44:30;-0.50;81.14
68274;SHT30;55104;47.356;19.448;2023-12-04T15:47:33;-0.49;81.42
68274;SHT30;55104;47.356;19.448;2023-12-04T15:50:35;-0.47;81.17
68274;SHT30;55104;47.356;19.448;2023-12-04T15:53:38;-0.56;81.43
68274;SHT30;55104;47.356;19.448;2023-12-04T15:56:40;-0.60;82.24
68274;SHT30;55104;47.356;19.448;2023-12-04T15:59:43;-0.65;82.64
68274;SHT30;55104;47.356;19.448;2023-12-04T16:02:48;-0.69;83.20
68274;SHT30;55104;47.356;19.448;2023-12-04T16:05:50;-0.65;83.23
68274;SHT30;55104;47.356;19.448;2023-12-04T16:08:53;-0.67;83.50
68274;SHT30;55104;47.356;19.448;2023-12-04T16:11:58;-0.74;83.88
68274;SHT30;55104;47.356;19.448;2023-12-04T16:15:03;-0.75;83.65
68274;SHT30;55104;47.356;19.448;2023-12-04T16:18:06;-0.81;84.03
68274;SHT30;55104;47.356;19.448;2023-12-04T16:21:09;-0.79;83.93
68274;SHT30;55104;47.356;19.448;2023-12-04T16:24:11;-0.78;83.92
68274;SHT30;55104;47.356;19.448;2023-12-04T16:27:13;-0.79;83.77
68274;SHT30;55104;47.356;19.448;2023-12-04T16:30:16;-0.81;83.70
68274;SHT30;55104;47.356;19.448;2023-12-04T16:33:18;-0.85;84.05
68274;SHT30;55104;47.356;19.448;2023-12-04T16:36:20;-0.88;83.90
68274;SHT30;55104;47.356;19.448;2023-12-04T16:39:23;-0.95;83.50
68274;SHT30;55104;47.356;19.448;2023-12-04T16:42:25;-0.99;84.05
68274;SHT30;55104;47.356;19.448;2023-12-04T16:45:28;-1.00;83.97
68274;SHT30;55104;47.356;19.448;2023-12-04T16:48:30;-0.97;83.96
68274;SHT30;55104;47.356;19.448;2023-12-04T16:51:33;-1.02;84.37
68274;SHT30;55104;47.356;19.448;2023-12-04T16:54:36;-1.06;84.77
68274;SHT30;55104;47.356;19.448;2023-12-04T16:57:38;-1.07;85.17
68274;SHT30;55104;47.356;19.448;2023-12-04T17:00:41;-1.13;85.31
68274;SHT30;55104;47.356;19.448;2023-12-04T17:03:43;-1.15;84.99
68274;SHT30;55104;47.356;19.448;2023-12-04T17:06:45;-1.19;85.20
68274;SHT30;55104;47.356;19.448;2023-12-04T17:09:47;-1.19;85.38
68274;SHT30;55104;47.356;19.448;2023-12-04T17:12:50;-1.23;85.27
68274;SHT30;55104;47.356;19.448;2023-12-04T17:15:52;-1.30;85.87
68274;SHT30;55104;47.356;19.448;2023-12-04T17:18:54;-1.36;86.16
68274;SHT30;55104;47.356;19.448;2023-12-04T17:21:58;-1.33;86.18
68274;SHT30;55104;47.356;19.448;2023-12-04T17:25:00;-1.39;86.49
68274;SHT30;55104;47.356;19.448;2023-12-04T17:28:03;-1.37;86.61
68274;SHT30;55104;47.356;19.448;2023-12-04T17:31:09;-1.36;86.60
68274;SHT30;55104;47.356;19.448;2023-12-04T17:34:14;-1.51;87.35
68274;SHT30;55104;47.356;19.448;2023-12-04T17:37:17;-1.55;87.51
68274;SHT30;55104;47.356;19.448;2023-12-04T17:40:19;-1.61;87.87
68274;SHT30;55104;47.356;19.448;2023-12-04T17:43:23;-1.64;87.91
68274;SHT30;55104;47.356;19.448;2023-12-04T17:46:25;-1.71;87.98
68274;SHT30;55104;47.356;19.448;2023-12-04T17:49:28;-1.68;88.09
68274;SHT30;55104;47.356;19.448;2023-12-04T17:52:30;-1.70;87.97
68274;SHT30;55104;47.356;19.448;2023-12-04T17:55:32;-1.71;88.25
68274;SHT30;55104;47.356;19.448;2023-12-04T17:58:35;-1.72;88.55
68274;SHT30;55104;47.356;19.448;2023-12-04T18:01:37;-1.71;88.62
68274;SHT30;55104;47.356;19.448;2023-12-04T18:04:42;-1.71;88.78
68274;SHT30;55104;47.356;19.448;2023-12-04T18:07:45;-1.71;88.87
68274;SHT30;55104;47.356;19.448;2023-12-04T18:10:48;-1.71;88.93
68274;SHT30;55104;47.356;19.448;2023-12-04T18:13:50;-1.68;88.61
68274;SHT30;55104;47.356;19.448;2023-12-04T18:16:55;-1.67;88.44
68274;SHT30;55104;47.356;19.448;2023-12-04T18:19:57;-1.72;88.79
68274;SHT30;55104;47.356;19.448;2023-12-04T18:23:00;-1.72;88.80
68274;SHT30;55104;47.356;19.448;2023-12-04T18:26:02;-1.77;88.97
68274;SHT30;55104;47.356;19.448;2023-12-04T18:29:05;-1.72;88.93
68274;SHT30;55104;47.356;19.448;2023-12-04T18:32:09;-1.70;88.93
68274;SHT30;55104;47.356;19.448;2023-12-04T18:35:12;-1.74;89.13
68274;SHT30;55104;47.356;19.448;2023-12-04T18:38:25;-1.78;89.39
68274;SHT30;55104;47.356;19.448;2023-12-04T18:41:29;-1.74;89.61
68274;SHT30;55104;47.356;19.448;2023-12-04T18:44:32;-1.71;89.59
68274;SHT30;55104;47.356;19.448;2023-12-04T18:47:36;-1.71;89.78
68274;SHT30;55104;47.356;19.448;2023-12-04T18:50:41;-1.77;90.01
68274;SHT30;55104;47.356;19.448;2023-12-04T18:53:45;-1.74;89.83
68274;SHT30;55104;47.356;19.448;2023-12-04T18:56:47;-1.77;90.01
68274;SHT30;55104;47.356;19.448;2023-12-04T18:59:49;-1.79;89.99
68274;SHT30;55104;47.356;19.448;2023-12-04T19:02:53;-1.81;90.01
68274;SHT30;55104;47.356;19.448;2023-12-04T19:05:55;-1.82;90.15